Time;durP1;ratioP1;P1;durP2;ratioP2;P2;SDS_P1;SDS_P2;PMS_P1;PMS_P2;Temp;Humidity;BMP_temperature;BMP_pressure;BME280_temperature;BME280_humidity;BME280_pressure;Samples;Min_cycle;Max_cycle;Signal;HPM_P1;HPM_P2
2021/03/24 00:01:55;;;;;;;8.35;6.97;;;;;;;-1.64;90.05;100107.70;1706871;84;21043;-41
2021/03/24 00:04:22;;;;;;;9.23;7.55;;;;;;;-1.62;90.10;100102.28;1706872;84;21210;-42
2021/03/24 00:06:51;;;;;;;8.88;6.97;;;;;;;-1.59;90.13;100108.70;1706730;84;21094;-42
2021/03/24 00:09:19;;;;;;;12.28;9.03;;;;;;;-1.59;90.21;100105.73;1706445;84;20940;-42
2021/03/24 00:11:48;;;;;;;10.95;8.70;;;;;;;-1.55;90.17;100098.19;1706270;84;21512;-42
2021/03/24 00:14:17;;;;;;;11.53;8.33;;;;;;;-1.52;90.21;100105.48;1706325;84;20904;-42
2021/03/24 00:16:48;;;;;;;14.33;9.93;;;;;;;-1.47;90.19;100105.61;1706283;84;21043;-42
2021/03/24 00:19:16;;;;;;;11.38;9.55;;;;;;;-1.46;90.26;100108.59;1706408;84;21172;-41
2021/03/24 00:21:45;;;;;;;13.22;10.28;;;;;;;-1.45;90.32;100106.08;1705315;84;21038;-42
2021/03/24 00:24:15;;;;;;;14.98;10.70;;;;;;;-1.41;90.39;100107.42;1706176;84;21078;-42
2021/03/24 00:26:43;;;;;;;14.55;10.90;;;;;;;-1.40;90.41;100105.33;1706319;83;21023;-42
2021/03/24 00:29:11;;;;;;;14.85;10.50;;;;;;;-1.37;90.51;100102.89;1706346;84;21374;-42
2021/03/24 00:31:39;;;;;;;19.67;12.75;;;;;;;-1.37;90.58;100103.73;1706377;84;21608;-42
2021/03/24 00:34:07;;;;;;;16.80;12.20;;;;;;;-1.35;90.66;100108.87;1706078;84;20999;-42
2021/03/24 00:36:34;;;;;;;15.25;11.78;;;;;;;-1.34;90.72;100113.97;1701910;84;21027;-42
2021/03/24 00:39:02;;;;;;;17.52;12.07;;;;;;;-1.33;90.75;100108.49;1706266;84;21050;-42
2021/03/24 00:41:30;;;;;;;14.90;11.03;;;;;;;-1.30;90.87;100112.38;1706354;83;21261;-41
2021/03/24 00:43:57;;;;;;;17.92;13.72;;;;;;;-1.28;90.93;100113.66;1706200;82;21007;-41
2021/03/24 00:46:25;;;;;;;17.98;13.15;;;;;;;-1.25;90.94;100112.06;1706312;82;21019;-41
2021/03/24 00:48:53;;;;;;;17.30;12.88;;;;;;;-1.23;91.06;100113.39;1706245;84;21015;-42
2021/03/24 00:51:21;;;;;;;17.35;13.72;;;;;;;-1.21;91.08;100109.20;1706373;83;20991;-41
2021/03/24 00:53:51;;;;;;;17.62;13.15;;;;;;;-1.21;91.17;100112.59;1706263;84;21207;-42
2021/03/24 00:56:18;;;;;;;17.87;13.53;;;;;;;-1.19;91.15;100113.48;1711451;83;21030;-42
2021/03/24 00:58:46;;;;;;;17.30;12.82;;;;;;;-1.15;91.14;100120.77;1719790;83;21035;-42
2021/03/24 01:01:13;;;;;;;15.95;11.85;;;;;;;-1.15;91.12;100119.50;1719823;83;21125;-41
2021/03/24 01:03:42;;;;;;;15.20;12.78;;;;;;;-1.14;91.11;100119.08;1719867;83;21026;-42
2021/03/24 01:06:10;;;;;;;18.02;13.03;;;;;;;-1.12;91.08;100118.73;1719902;83;21372;-43
2021/03/24 01:08:56;;;;;;;18.02;13.95;;;;;;;-1.14;91.13;100117.80;1719925;83;21007;-41
2021/03/24 01:11:24;;;;;;;17.07;12.80;;;;;;;-1.15;91.15;100125.85;1719816;83;21133;-41
2021/03/24 01:13:53;;;;;;;17.60;12.58;;;;;;;-1.13;91.11;100124.63;1719771;83;21070;-41
2021/03/24 01:16:22;;;;;;;16.87;12.88;;;;;;;-1.11;91.18;100136.96;1719842;83;20963;-42
2021/03/24 01:18:50;;;;;;;18.60;12.95;;;;;;;-1.11;91.22;100130.61;1719811;83;21340;-42
2021/03/24 01:21:18;;;;;;;20.27;14.28;;;;;;;-1.11;91.25;100129.34;1719785;83;20978;-42
2021/03/24 01:23:46;;;;;;;17.57;13.22;;;;;;;-1.08;91.24;100134.49;1719756;83;20988;-42
2021/03/24 01:26:15;;;;;;;15.78;12.58;;;;;;;-1.08;91.26;100142.11;1719808;82;20916;-42
2021/03/24 01:28:43;;;;;;;21.25;13.72;;;;;;;-1.09;91.27;100141.23;1719948;83;21516;-42
2021/03/24 01:31:11;;;;;;;17.65;12.95;;;;;;;-1.09;91.27;100145.48;1719877;83;21356;-42
2021/03/24 01:33:38;;;;;;;16.90;12.82;;;;;;;-1.10;91.31;100142.06;1719771;83;21106;-42
2021/03/24 01:36:07;;;;;;;17.57;13.40;;;;;;;-1.09;91.29;100141.66;1719724;83;20967;-42
2021/03/24 01:38:34;;;;;;;16.87;12.90;;;;;;;-1.09;91.32;100141.23;1719765;83;20994;-42
2021/03/24 01:41:02;;;;;;;15.88;12.85;;;;;;;-1.09;91.33;100145.05;1719856;82;21058;-43
2021/03/24 01:43:35;;;;;;;16.60;12.30;;;;;;;-1.11;91.32;100144.16;1719790;82;21211;-43
2021/03/24 01:46:24;;;;;;;17.12;12.20;;;;;;;-1.11;91.33;100142.05;1719795;83;21610;-43
2021/03/24 01:49:04;;;;;;;16.00;12.45;;;;;;;-1.10;91.27;100147.57;1719900;83;21031;-42
2021/03/24 01:51:39;;;;;;;17.00;12.53;;;;;;;-1.14;91.29;100144.08;1719696;83;20940;-42
2021/03/24 01:54:09;;;;;;;13.95;12.18;;;;;;;-1.17;91.29;100142.75;1719565;83;20923;-41
2021/03/24 01:56:36;;;;;;;15.98;11.95;;;;;;;-1.19;91.24;100154.55;1691727;83;21562;-42
2021/03/24 01:59:05;;;;;;;15.18;11.80;;;;;;;-1.21;91.25;100153.23;1716124;83;21018;-42
2021/03/24 02:01:33;;;;;;;14.87;11.53;;;;;;;-1.25;91.21;100156.52;1688557;83;21030;-42
2021/03/24 02:04:02;;;;;;;17.65;12.20;;;;;;;-1.26;91.21;100168.77;1716164;83;21014;-42
2021/03/24 02:06:49;;;;;;;14.10;11.20;;;;;;;-1.27;91.24;100155.63;1716184;83;20959;-42
2021/03/24 02:09:36;;;;;;;15.20;11.18;;;;;;;-1.28;91.26;100156.45;1716288;83;22306;-42
2021/03/24 02:12:25;;;;;;;17.12;13.25;;;;;;;-1.30;91.35;100165.28;1716133;83;21101;-42
2021/03/24 02:14:59;;;;;;;15.43;11.55;;;;;;;-1.30;91.42;100166.98;1716161;83;20967;-42
2021/03/24 02:17:28;;;;;;;13.28;11.75;;;;;;;-1.31;91.47;100168.65;1688317;83;21062;-42
2021/03/24 02:20:20;;;;;;;14.20;11.88;;;;;;;-1.30;91.51;100172.06;1716185;83;21579;-42
2021/03/24 02:22:52;;;;;;;13.72;11.30;;;;;;;-1.30;91.54;100172.06;1716091;83;21374;-41
2021/03/24 02:25:33;;;;;;;16.37;13.22;;;;;;;-1.30;91.59;100175.87;1715822;83;21024;-42
2021/03/24 02:28:03;;;;;;;14.63;11.83;;;;;;;-1.30;91.66;100177.14;1716099;82;21560;-42
2021/03/24 02:30:34;;;;;;;17.15;12.07;;;;;;;-1.28;91.68;100170.81;1716048;83;21066;-42
2021/03/24 02:33:07;;;;;;;14.93;11.90;;;;;;;-1.24;91.72;100170.09;1716211;83;21015;-42
2021/03/24 02:35:37;;;;;;;16.67;12.93;;;;;;;-1.26;91.86;100176.78;1712803;83;21383;-43
2021/03/24 02:38:07;;;;;;;16.07;11.95;;;;;;;-1.26;91.90;100176.39;1716143;82;21611;-42
2021/03/24 02:40:35;;;;;;;12.65;11.30;;;;;;;-1.26;91.96;100181.47;1716194;83;21584;-42
2021/03/24 02:43:03;;;;;;;14.80;12.30;;;;;;;-1.25;91.94;100183.19;1716022;82;21129;-42
2021/03/24 02:45:34;;;;;;;17.07;12.68;;;;;;;-1.23;92.02;100186.63;1716211;83;21552;-42
2021/03/24 02:48:06;;;;;;;19.37;13.38;;;;;;;-1.25;92.09;100187.00;1716228;83;21284;-42
2021/03/24 02:50:34;;;;;;;14.93;12.07;;;;;;;-1.21;92.04;100204.03;1688458;83;21046;-42
2021/03/24 02:53:02;;;;;;;15.48;11.50;;;;;;;-1.22;92.06;100198.94;1716139;83;21019;-42
2021/03/24 02:55:30;;;;;;;18.50;13.70;;;;;;;-1.22;92.08;100198.94;1716111;83;21058;-42
2021/03/24 02:57:57;;;;;;;17.05;13.28;;;;;;;-1.23;92.11;100191.70;1698047;83;21002;-42
2021/03/24 03:00:26;;;;;;;17.23;12.70;;;;;;;-1.24;92.15;100209.05;1727210;83;21456;-42
2021/03/24 03:03:14;;;;;;;15.75;12.37;;;;;;;-1.23;92.17;100208.22;1727138;83;21093;-42
2021/03/24 03:05:41;;;;;;;18.52;13.22;;;;;;;-1.22;92.21;100206.13;1727198;83;20907;-42
2021/03/24 03:08:35;;;;;;;18.75;14.23;;;;;;;-1.23;92.31;100204.41;1727208;83;21042;-42
2021/03/24 03:11:30;;;;;;;16.82;13.50;;;;;;;-1.23;92.40;100213.30;1727208;83;20978;-42
2021/03/24 03:14:12;;;;;;;17.85;12.68;;;;;;;-1.23;92.43;100217.11;1726785;83;21178;-42
2021/03/24 03:16:51;;;;;;;19.32;13.30;;;;;;;-1.23;92.55;100220.08;1727074;83;21010;-42
2021/03/24 03:19:35;;;;;;;16.62;13.28;;;;;;;-1.24;92.71;100220.47;1726968;83;20922;-42
2021/03/24 03:22:10;;;;;;;18.05;13.35;;;;;;;-1.24;92.91;100228.09;1727187;83;21066;-42
2021/03/24 03:24:45;;;;;;;17.20;13.72;;;;;;;-1.25;93.06;100228.91;1726798;82;21022;-42
2021/03/24 03:27:16;;;;;;;16.35;12.50;;;;;;;-1.24;93.09;100225.98;1727399;83;21380;-42
2021/03/24 03:29:43;;;;;;;16.73;12.90;;;;;;;-1.24;93.18;100228.52;1727082;83;21038;-41
2021/03/24 03:32:16;;;;;;;17.25;12.90;;;;;;;-1.23;93.23;100234.89;1727173;83;21007;-42
2021/03/24 03:34:46;;;;;;;18.00;13.62;;;;;;;-1.24;93.27;100236.98;1727092;83;20998;-42
2021/03/24 03:37:14;;;;;;;17.60;13.55;;;;;;;-1.23;93.27;100243.78;1727116;83;20994;-42
2021/03/24 03:39:43;;;;;;;20.25;13.30;;;;;;;-1.23;93.28;100247.59;1727286;83;21395;-42
2021/03/24 03:42:10;;;;;;;23.45;13.95;;;;;;;-1.22;93.26;100237.88;1677572;83;21625;-42
2021/03/24 03:44:38;;;;;;;14.70;12.07;;;;;;;-1.22;93.23;100245.50;1727332;83;21005;-42
2021/03/24 03:47:10;;;;;;;21.10;13.78;;;;;;;-1.22;93.34;100248.05;1727240;81;21006;-42
2021/03/24 03:49:39;;;;;;;21.97;12.73;;;;;;;-1.22;93.34;100248.05;1727370;83;20954;-42
2021/03/24 03:52:31;;;;;;;18.67;14.18;;;;;;;-1.20;93.39;100258.27;1727368;83;21204;-42
2021/03/24 03:55:16;;;;;;;18.70;14.03;;;;;;;-1.21;93.40;100250.19;1727250;83;21005;-41
2021/03/24 03:57:56;;;;;;;17.15;13.03;;;;;;;-1.20;93.39;100261.64;1715576;83;20944;-42
2021/03/24 04:00:31;;;;;;;18.92;14.13;;;;;;;-1.18;93.43;100271.86;1706235;84;20967;-42
2021/03/24 04:03:19;;;;;;;19.15;13.78;;;;;;;-1.18;93.44;100270.59;1706255;83;21304;-42
2021/03/24 04:05:54;;;;;;;21.40;14.20;;;;;;;-1.17;93.41;100277.39;1706267;84;21362;-42
2021/03/24 04:08:25;;;;;;;17.90;13.10;;;;;;;-1.17;93.48;100275.69;1686600;84;20956;-42
2021/03/24 04:10:59;;;;;;;20.15;14.95;;;;;;;-1.17;93.51;100283.74;1706268;83;20952;-42
2021/03/24 04:13:29;;;;;;;12.23;9.43;;;;;;;-1.16;93.54;100290.55;1706607;84;21639;-42
2021/03/24 04:15:58;;;;;;;17.75;13.68;;;;;;;-1.15;93.57;100292.27;1706236;84;21015;-43
2021/03/24 04:18:33;;;;;;;18.02;13.55;;;;;;;-1.14;93.59;100291.84;1706281;83;21211;-42
2021/03/24 04:21:03;;;;;;;23.92;14.55;;;;;;;-1.13;93.66;100301.21;1706235;84;21651;-42
2021/03/24 04:23:35;;;;;;;18.25;14.40;;;;;;;-1.11;93.60;100299.57;1706339;84;21022;-42
2021/03/24 04:26:16;;;;;;;21.85;15.08;;;;;;;-1.11;93.70;100300.84;1706241;84;21055;-42
2021/03/24 04:28:46;;;;;;;22.25;14.98;;;;;;;-1.09;93.72;100308.94;1652922;85;21172;-42
2021/03/24 04:31:14;;;;;;;18.15;13.62;;;;;;;-1.08;93.67;100306.84;1658786;86;21375;-42
2021/03/24 04:33:43;;;;;;;17.52;13.25;;;;;;;-1.07;93.65;100305.18;1683478;84;21494;-42
2021/03/24 04:36:27;;;;;;;22.17;15.13;;;;;;;-1.07;93.71;100310.27;1706160;83;21003;-42
2021/03/24 04:38:58;;;;;;;18.65;13.48;;;;;;;-1.03;93.76;100317.14;1700816;83;21007;-41
2021/03/24 04:41:31;;;;;;;16.65;13.38;;;;;;;-1.01;93.72;100320.58;1706309;83;21023;-41
2021/03/24 04:44:06;;;;;;;17.87;13.50;;;;;;;-1.00;93.74;100324.84;1706315;82;21390;-42
2021/03/24 04:46:37;;;;;;;16.37;13.55;;;;;;;-0.98;93.75;100316.00;1706385;84;21639;-42
2021/03/24 04:49:19;;;;;;;19.05;14.47;;;;;;;-0.96;93.79;100319.02;1706333;83;20999;-42
2021/03/24 04:51:46;;;;;;;18.15;13.98;;;;;;;-0.92;93.79;100325.90;1705776;84;21003;-42
2021/03/24 04:54:23;;;;;;;18.57;14.00;;;;;;;-0.87;93.67;100324.36;1706271;84;21043;-42
2021/03/24 04:56:53;;;;;;;;;;;;;;;-0.84;93.69;100325.27;1709226;83;21392;-42
2021/03/24 04:59:25;;;;;;;18.92;13.58;;;;;;;-0.80;93.68;100324.52;1719714;83;20175;-42
2021/03/24 05:01:57;;;;;;;17.35;13.93;;;;;;;-0.80;93.59;100329.17;1719762;83;21106;-42
2021/03/24 05:04:45;;;;;;;19.37;14.68;;;;;;;-0.78;93.50;100322.44;1694016;83;21015;-43
2021/03/24 05:07:18;;;;;;;19.73;14.45;;;;;;;-0.74;93.47;100330.62;1719833;82;21030;-43
2021/03/24 05:09:47;;;;;;;21.23;15.08;;;;;;;-0.68;93.47;100330.33;1719701;83;21046;-43
2021/03/24 05:12:32;;;;;;;20.40;15.30;;;;;;;-0.64;93.35;100335.51;1719688;83;21030;-43
2021/03/24 05:15:19;;;;;;;21.70;15.03;;;;;;;-0.62;93.19;100340.25;1719749;82;21180;-43
2021/03/24 05:17:47;;;;;;;18.85;13.65;;;;;;;-0.62;92.98;100334.28;1719703;83;21011;-41
2021/03/24 05:20:26;;;;;;;20.92;14.28;;;;;;;-0.62;92.88;100341.92;1719777;83;21034;-42
2021/03/24 05:22:54;;;;;;;21.95;16.20;;;;;;;-0.61;92.80;100346.18;1719588;83;21393;-42
2021/03/24 05:25:29;;;;;;;21.40;15.85;;;;;;;-0.57;92.70;100346.70;1719708;83;20975;-41
2021/03/24 05:28:02;;;;;;;22.95;15.48;;;;;;;-0.53;92.69;100353.58;1719835;83;20967;-42
2021/03/24 05:30:38;;;;;;;21.68;15.25;;;;;;;-0.54;92.44;100359.92;1693250;83;20943;-42
2021/03/24 05:33:20;;;;;;;21.97;16.05;;;;;;;-0.53;92.32;100359.94;1719860;83;21523;-42
2021/03/24 05:35:59;;;;;;;23.80;17.05;;;;;;;-0.52;92.29;100368.45;1719121;83;21435;-42
2021/03/24 05:38:43;;;;;;;21.90;16.37;;;;;;;-0.51;92.20;100371.02;1719374;83;21017;-42
2021/03/24 05:41:40;;;;;;;20.48;16.00;;;;;;;-0.54;92.02;100381.11;1719728;83;20936;-43
2021/03/24 05:44:35;;;;;;;24.12;17.27;;;;;;;-0.52;91.97;100388.80;1719771;82;21476;-44
2021/03/24 05:47:42;;;;;;;22.55;16.20;;;;;;;-0.55;91.82;100388.29;1719774;83;20991;-44
2021/03/24 05:50:47;;;;;;;;;;;;;;;-0.52;91.86;100398.97;1713773;83;21394;-42
2021/03/24 05:54:00;;;;;;;24.27;17.35;;;;;;;-0.48;91.62;100395.67;1719707;82;20163;-42
2021/03/24 05:57:15;;;;;;;28.42;17.40;;;;;;;-0.42;91.48;100398.80;1719754;83;20979;-42
2021/03/24 06:00:00;;;;;;;24.05;17.92;;;;;;;-0.39;91.20;100407.34;1719571;83;20911;-43
2021/03/24 06:02:58;;;;;;;28.45;18.30;;;;;;;-0.31;91.04;100414.78;1719754;83;21025;-42
2021/03/24 06:05:34;;;;;;;24.57;17.10;;;;;;;-0.23;90.76;100407.35;1719680;83;21211;-43
2021/03/24 06:08:43;;;;;;;22.20;15.45;;;;;;;-0.16;90.38;100415.97;1719711;83;21002;-43
2021/03/24 06:12:05;;;;;;;25.25;17.23;;;;;;;-0.11;89.84;100413.16;1719195;83;20978;-44
2021/03/24 06:15:31;;;;;;;26.87;18.05;;;;;;;-0.10;89.70;100421.23;1719853;83;20939;-44
2021/03/24 06:18:34;;;;;;;24.02;16.52;;;;;;;-0.04;89.59;100423.93;1719725;83;21014;-43
2021/03/24 06:21:41;;;;;;;22.13;15.10;;;;;;;-0.01;89.07;100421.45;1666312;86;21215;-43
2021/03/24 06:24:36;;;;;;;24.70;16.23;;;;;;;0.03;88.72;100438.95;1647561;86;21032;-42
2021/03/24 06:27:41;;;;;;;22.20;16.12;;;;;;;0.05;88.19;100427.11;1693728;84;21162;-42
2021/03/24 06:30:40;;;;;;;24.82;15.98;;;;;;;0.10;87.88;100431.02;1719637;82;20939;-44
2021/03/24 06:33:32;;;;;;;23.35;16.17;;;;;;;0.22;87.47;100435.55;1719789;83;21018;-44
2021/03/24 06:36:43;;;;;;;22.32;15.80;;;;;;;0.26;87.28;100443.73;1698900;83;21027;-42
2021/03/24 06:39:42;;;;;;;26.23;16.23;;;;;;;0.25;87.00;100445.41;1719692;83;21054;-42
2021/03/24 06:42:44;;;;;;;23.42;16.10;;;;;;;0.23;86.85;100447.05;1719528;82;21095;-42
2021/03/24 06:45:33;;;;;;;23.98;15.83;;;;;;;0.22;87.12;100451.70;1719695;83;20911;-42
2021/03/24 06:48:36;;;;;;;21.55;15.45;;;;;;;0.22;87.06;100453.38;1719734;83;20955;-42
2021/03/24 06:51:32;;;;;;;22.32;15.45;;;;;;;0.22;87.14;100456.80;1681619;83;21215;-43
2021/03/24 06:54:37;;;;;;;21.62;15.35;;;;;;;0.34;87.03;100461.71;1719600;83;21524;-42
2021/03/24 06:57:33;;;;;;;22.87;15.75;;;;;;;0.47;86.82;100468.83;1719762;83;21090;-43
2021/03/24 07:00:21;;;;;;;19.92;14.85;;;;;;;0.60;86.46;100458.51;1719713;83;21611;-42
2021/03/24 07:03:23;;;;;;;23.80;16.50;;;;;;;0.77;85.96;100465.25;1719738;83;21205;-43
2021/03/24 07:06:15;;;;;;;21.87;14.93;;;;;;;0.91;85.73;100470.64;1719375;82;21400;-43
2021/03/24 07:09:06;;;;;;;22.95;15.00;;;;;;;1.03;85.12;100477.69;1719667;83;21046;-42
2021/03/24 07:11:57;;;;;;;19.27;14.03;;;;;;;1.05;84.35;100473.48;1719658;83;21030;-42
2021/03/24 07:15:21;;;;;;;21.95;15.75;;;;;;;1.03;83.91;100478.13;1719546;83;21035;-42
2021/03/24 07:18:26;;;;;;;23.52;14.90;;;;;;;0.98;83.86;100486.94;1719737;83;21011;-42
2021/03/24 07:21:12;;;;;;;20.57;14.95;;;;;;;0.90;83.98;100487.20;1719837;83;21381;-42
2021/03/24 07:24:23;;;;;;;20.02;14.43;;;;;;;0.82;83.88;100499.34;1720034;83;20947;-42
2021/03/24 07:27:30;;;;;;;22.48;14.80;;;;;;;0.80;84.08;100493.34;1719866;83;20967;-43
2021/03/24 07:30:37;;;;;;;20.35;14.00;;;;;;;0.80;83.95;100496.33;1719837;83;21077;-43
2021/03/24 07:33:20;;;;;;;21.97;13.78;;;;;;;0.68;83.89;100507.95;1716386;82;21081;-43
2021/03/24 07:36:25;;;;;;;19.25;13.65;;;;;;;0.62;84.09;100514.58;1712927;83;20955;-43
2021/03/24 07:39:19;;;;;;;22.13;14.60;;;;;;;0.58;84.33;100516.22;1719841;83;20955;-43
2021/03/24 07:42:09;;;;;;;21.33;14.38;;;;;;;0.62;84.60;100518.40;1705008;82;21003;-43
2021/03/24 07:44:49;;;;;;;21.30;15.18;;;;;;;0.66;84.51;100526.59;1719721;83;21002;-43
2021/03/24 07:47:37;;;;;;;22.32;15.43;;;;;;;0.62;84.68;100534.96;1719835;83;21022;-43
2021/03/24 07:50:39;;;;;;;27.80;17.27;;;;;;;0.61;84.54;100530.30;1719827;83;22265;-43
2021/03/24 07:53:58;;;;;;;22.30;15.18;;;;;;;0.54;84.98;100533.53;1719758;83;21046;-43
2021/03/24 07:56:43;;;;;;;25.10;14.63;;;;;;;0.56;85.10;100540.37;1719790;83;21031;-44
2021/03/24 07:59:35;;;;;;;15.63;10.30;;;;;;;0.54;85.05;100544.56;1712001;83;21003;-43
2021/03/24 08:02:36;;;;;;;23.87;14.95;;;;;;;0.59;85.08;100542.53;1706301;83;21032;-44
2021/03/24 08:05:45;;;;;;;20.70;14.60;;;;;;;0.63;85.17;100548.15;1706285;84;22636;-42
2021/03/24 08:08:39;;;;;;;21.25;14.70;;;;;;;0.67;84.73;100552.09;1706211;84;20976;-43
2021/03/24 08:11:57;;;;;;;22.45;14.03;;;;;;;0.70;84.57;100538.58;1706245;83;21556;-44
2021/03/24 08:14:39;;;;;;;21.50;13.93;;;;;;;0.70;84.00;100555.14;1689442;84;21018;-43
2021/03/24 08:17:42;;;;;;;21.10;14.07;;;;;;;0.67;83.11;100555.91;1706270;84;21027;-43
2021/03/24 08:20:32;;;;;;;20.37;14.35;;;;;;;0.62;83.09;100563.87;1706294;84;22292;-43
2021/03/24 08:23:40;;;;;;;18.52;12.85;;;;;;;0.57;82.95;100559.92;1706201;84;20956;-42
2021/03/24 08:26:22;;;;;;;21.63;13.70;;;;;;;0.55;83.20;100564.55;1706481;84;21020;-42
2021/03/24 08:29:10;;;;;;;22.90;14.47;;;;;;;0.60;83.36;100565.91;1706177;84;21256;-42
2021/03/24 08:32:15;;;;;;;23.27;15.08;;;;;;;0.64;82.88;100566.47;1706300;84;21019;-42
2021/03/24 08:35:17;;;;;;;20.43;14.25;;;;;;;0.71;82.93;100570.45;1706260;82;21270;-42
2021/03/24 08:38:09;;;;;;;21.45;14.73;;;;;;;0.78;82.58;100568.06;1706145;84;20984;-42
2021/03/24 08:41:07;;;;;;;23.27;14.85;;;;;;;0.79;81.75;100566.81;1706189;84;21031;-43
2021/03/24 08:44:15;;;;;;;22.10;15.23;;;;;;;0.81;81.58;100559.22;1706163;82;21031;-43
2021/03/24 08:47:06;;;;;;;25.35;14.07;;;;;;;0.81;81.37;100570.25;1847609;76;22749;-45
2021/03/24 08:49:36;;;;;;;19.80;14.53;;;;;;;0.78;80.88;100573.16;1813476;79;21049;-42
2021/03/24 08:52:41;;;;;;;19.07;13.48;;;;;;;0.79;80.43;100573.18;1786755;79;21423;-42
2021/03/24 08:55:24;;;;;;;20.02;14.45;;;;;;;0.82;80.24;100571.13;1817853;78;20979;-43
2021/03/24 08:58:14;;;;;;;23.12;14.98;;;;;;;0.83;80.55;100576.25;1801260;79;20942;-44
2021/03/24 09:00:53;;;;;;;24.02;14.40;;;;;;;0.89;80.31;100561.52;1817731;78;20927;-44
2021/03/24 09:04:01;;;;;;;18.62;13.75;;;;;;;0.95;79.85;100567.17;1817859;78;21050;-44
2021/03/24 09:07:02;;;;;;;22.35;14.95;;;;;;;0.98;79.57;100562.98;1817761;79;21412;-44
2021/03/24 09:10:02;;;;;;;20.45;14.05;;;;;;;1.04;79.35;100570.36;1817716;79;20990;-44
2021/03/24 09:12:38;;;;;;;23.52;13.48;;;;;;;1.08;79.09;100569.16;1817154;79;20986;-43
2021/03/24 09:15:24;;;;;;;22.25;15.88;;;;;;;1.16;79.04;100568.49;1847623;76;22806;-44
2021/03/24 09:18:06;;;;;;;21.85;14.68;;;;;;;1.14;78.52;100561.67;1817872;78;21061;-44
2021/03/24 09:21:01;;;;;;;20.82;14.30;;;;;;;1.17;78.38;100561.28;1814840;79;21143;-44
2021/03/24 09:24:18;;;;;;;20.80;13.93;;;;;;;1.20;78.14;100571.12;1817936;79;20939;-45
2021/03/24 09:27:20;;;;;;;22.35;14.28;;;;;;;1.25;78.52;100576.33;1817826;79;21014;-43
2021/03/24 09:30:24;;;;;;;18.23;12.85;;;;;;;1.32;78.10;100550.12;1815037;79;20962;-44
2021/03/24 09:33:13;;;;;;;20.88;14.68;;;;;;;1.36;76.69;100563.81;1817736;79;20942;-44
2021/03/24 09:36:19;;;;;;;21.02;15.00;;;;;;;1.34;76.86;100566.75;1817835;78;21319;-43
2021/03/24 09:38:49;;;;;;;21.35;15.23;;;;;;;1.36;77.11;100579.96;1817897;79;21006;-43
2021/03/24 09:41:31;;;;;;;19.23;13.50;;;;;;;1.43;77.07;100572.03;1817700;77;20982;-44
2021/03/24 09:44:02;;;;;;;21.50;14.75;;;;;;;1.51;76.70;100577.30;1788685;78;21049;-43
2021/03/24 09:46:52;;;;;;;22.87;15.80;;;;;;;1.54;76.15;100564.60;1785586;80;20934;-43
2021/03/24 09:49:38;;;;;;;21.02;15.03;;;;;;;1.63;75.26;100548.19;1847550;76;22701;-43
2021/03/24 09:52:35;;;;;;;25.48;14.90;;;;;;;1.59;74.75;100574.48;1781899;79;20926;-44
2021/03/24 09:55:26;;;;;;;25.40;15.57;;;;;;;1.60;74.73;100567.27;1811988;77;21348;-43
2021/03/24 09:58:20;;;;;;;20.95;14.87;;;;;;;1.60;74.73;100567.27;1817732;79;21235;-43
2021/03/24 10:01:10;;;;;;;19.40;14.43;;;;;;;1.61;74.67;100570.27;1817857;79;21010;-43
2021/03/24 10:03:59;;;;;;;23.67;15.32;;;;;;;1.63;74.99;100571.16;1817847;79;21033;-43
2021/03/24 10:07:01;;;;;;;21.42;15.03;;;;;;;1.66;75.29;100574.20;1817905;77;21002;-43
2021/03/24 10:09:44;;;;;;;22.73;14.98;;;;;;;1.69;74.50;100578.95;1817881;79;21368;-42
2021/03/24 10:12:43;;;;;;;20.90;13.80;;;;;;;1.64;74.86;100574.58;1817763;79;20962;-43
2021/03/24 10:15:29;;;;;;;22.67;15.78;;;;;;;1.64;74.75;100574.58;1817776;78;20990;-42
2021/03/24 10:18:08;;;;;;;27.13;14.58;;;;;;;1.62;75.08;100573.27;1817799;77;21606;-44
2021/03/24 10:20:44;;;;;;;25.88;15.23;;;;;;;1.61;74.16;100567.72;1817816;79;20915;-45
2021/03/24 10:23:23;;;;;;;23.77;15.50;;;;;;;1.57;73.81;100576.14;1817714;78;20998;-44
2021/03/24 10:25:54;;;;;;;18.07;13.40;;;;;;;1.53;73.79;100574.36;1817707;77;20951;-43
2021/03/24 10:28:26;;;;;;;20.82;14.30;;;;;;;1.51;73.74;100568.37;1817825;79;21524;-44
2021/03/24 10:31:01;;;;;;;19.73;14.43;;;;;;;1.46;73.00;100566.14;1814082;79;20931;-42
2021/03/24 10:33:52;;;;;;;21.12;14.18;;;;;;;1.41;72.50;100563.09;1817925;79;21006;-44
2021/03/24 10:36:25;;;;;;;22.10;14.23;;;;;;;1.38;72.74;100564.70;1817675;79;21188;-43
2021/03/24 10:39:14;;;;;;;26.17;14.30;;;;;;;1.40;72.83;100566.47;1817663;79;20962;-43
2021/03/24 10:41:53;;;;;;;18.77;14.13;;;;;;;1.41;72.61;100558.38;1817788;78;20978;-43
2021/03/24 10:44:42;;;;;;;21.05;13.60;;;;;;;1.36;73.38;100570.19;1785531;80;21017;-43
2021/03/24 10:47:40;;;;;;;24.65;14.65;;;;;;;1.38;73.16;100567.25;1785519;80;20994;-43
2021/03/24 10:50:23;;;;;;;;;;;;;;;1.40;73.79;100567.74;1788222;79;21640;-44
2021/03/24 10:53:08;;;;;;;23.98;15.45;;;;;;;1.42;73.80;100575.02;1785604;80;20608;-43
2021/03/24 10:55:38;;;;;;;21.33;13.35;;;;;;;1.41;73.07;100569.46;1785686;80;21019;-43
2021/03/24 10:58:27;;;;;;;26.33;15.28;;;;;;;1.43;72.22;100561.83;1785628;80;21535;-43
2021/03/24 11:01:15;;;;;;;25.70;14.73;;;;;;;1.47;71.89;100571.69;1784724;80;20990;-43
2021/03/24 11:04:19;;;;;;;22.62;15.35;;;;;;;1.50;71.66;100558.56;1784920;80;21196;-43
2021/03/24 11:07:07;;;;;;;21.95;14.20;;;;;;;1.58;71.64;100565.98;1784942;80;20919;-43
2021/03/24 11:09:44;;;;;;;19.62;13.38;;;;;;;1.69;71.94;100565.32;1785123;79;21105;-44
2021/03/24 11:12:15;;;;;;;24.27;15.18;;;;;;;1.77;71.24;100574.41;1785097;80;21549;-44
2021/03/24 11:15:59;;;;;;;24.85;14.07;;;;;;;1.84;71.30;100572.41;1777001;79;22708;-43
2021/03/24 11:18:32;;;;;;;20.27;10.97;;;;;;;1.82;71.16;100568.57;1749787;82;21022;-43
2021/03/24 11:21:22;;;;;;;17.35;12.82;;;;;;;1.90;71.02;100573.83;1889948;76;22576;-44
2021/03/24 11:23:52;;;;;;;15.88;12.05;;;;;;;1.85;70.33;100565.20;1860807;77;21041;-43
2021/03/24 11:26:54;;;;;;;16.57;12.55;;;;;;;1.85;70.45;100571.58;1823078;78;22320;-43
2021/03/24 11:29:23;;;;;;;19.15;13.50;;;;;;;1.92;70.20;100558.13;1822969;78;21015;-43
2021/03/24 11:32:08;;;;;;;17.35;13.08;;;;;;;2.11;70.54;100562.27;1822951;78;21065;-43
2021/03/24 11:34:47;;;;;;;19.73;12.85;;;;;;;2.30;70.22;100560.48;1820869;78;21071;-43
2021/03/24 11:37:38;;;;;;;23.87;15.40;;;;;;;2.54;70.12;100558.34;1822610;78;20944;-43
2021/03/24 11:40:30;;;;;;;21.15;12.60;;;;;;;2.71;69.60;100559.88;1823022;78;20948;-44
2021/03/24 11:43:06;;;;;;;20.68;12.18;;;;;;;2.81;68.85;100555.33;1807649;78;21015;-42
2021/03/24 11:45:36;;;;;;;23.05;13.00;;;;;;;2.82;66.93;100557.05;1790183;80;20967;-42
2021/03/24 11:48:18;;;;;;;16.97;11.75;;;;;;;2.76;66.77;100573.98;1790586;80;20995;-43
2021/03/24 11:51:21;;;;;;;15.30;11.65;;;;;;;2.67;66.08;100555.56;1790671;80;21568;-43
2021/03/24 11:54:07;;;;;;;18.98;12.75;;;;;;;2.53;66.90;100572.80;1790528;80;21374;-44
2021/03/24 11:56:59;;;;;;;18.87;11.88;;;;;;;2.46;67.75;100572.27;1847688;76;23323;-43
2021/03/24 12:00:08;;;;;;;15.68;11.70;;;;;;;2.38;67.57;100575.08;1817760;79;20967;-43
2021/03/24 12:02:55;;;;;;;17.02;12.33;;;;;;;2.36;67.53;100571.64;1817855;78;21358;-43
2021/03/24 12:05:49;;;;;;;14.80;11.93;;;;;;;2.39;67.58;100572.56;1847665;76;22704;-42
2021/03/24 12:08:47;;;;;;;18.87;12.53;;;;;;;2.33;67.60;100574.15;1817826;79;20931;-43
2021/03/24 12:11:30;;;;;;;16.00;11.60;;;;;;;2.31;67.56;100576.70;1817529;79;20950;-43
2021/03/24 12:14:20;;;;;;;16.32;11.90;;;;;;;2.28;66.98;100580.05;1817790;79;21614;-44
2021/03/24 12:16:59;;;;;;;17.20;12.70;;;;;;;2.20;67.15;100581.61;1817850;79;21528;-43
2021/03/24 12:19:42;;;;;;;15.70;12.15;;;;;;;2.16;67.46;100579.84;1817817;77;20959;-43
2021/03/24 12:22:27;;;;;;;18.92;12.53;;;;;;;2.12;67.23;100580.19;1817896;79;20982;-44
2021/03/24 12:25:15;;;;;;;16.30;12.70;;;;;;;2.11;67.66;100578.87;1817819;78;21415;-41
2021/03/24 12:27:46;;;;;;;17.20;12.90;;;;;;;2.10;67.67;100584.81;1817803;78;21009;-43